Time;durP1;ratioP1;P1;durP2;ratioP2;P2;SDS_P1;SDS_P2;PMS_P1;PMS_P2;Temp;Humidity;BMP_temperature;BMP_pressure;BME280_temperature;BME280_humidity;BME280_pressure;Samples;Min_cycle;Max_cycle;Signal;HPM_P1;HPM_P2
2022/08/28 00:00:11;;;;;;;2.10;0.80;;;;;25.70;100709.00;;;;2085871;28;20960;-57
2022/08/28 00:01:12;;;;;;;1.00;0.80;;;;;25.70;100717.00;;;;2085329;28;20303;-57
2022/08/28 00:02:12;;;;;;;1.00;0.70;;;;;25.70;100724.00;;;;2077434;28;20440;-56
2022/08/28 00:03:12;;;;;;;1.50;0.90;;;;;25.70;100717.00;;;;2085539;28;20696;-56
2022/08/28 00:04:13;;;;;;;0.70;0.60;;;;;25.70;100714.00;;;;2085928;28;20646;-56
2022/08/28 00:05:14;;;;;;;1.40;0.70;;;;;25.70;100728.00;;;;2086031;28;20247;-56
2022/08/28 00:06:14;;;;;;;1.10;0.77;;;;;25.70;100723.00;;;;2086767;28;20210;-54
2022/08/28 00:07:14;;;;;;;0.80;0.70;;;;;25.70;100721.00;;;;2086297;28;20466;-56
2022/08/28 00:08:15;;;;;;;1.37;0.83;;;;;25.70;100716.00;;;;2086366;28;20225;-56
2022/08/28 00:09:16;;;;;;;1.07;0.77;;;;;25.70;100722.00;;;;2086068;28;20213;-56
2022/08/28 00:10:18;;;;;;;1.20;0.70;;;;;25.70;100715.00;;;;2085222;28;20486;-55
2022/08/28 00:11:19;;;;;;;1.03;0.60;;;;;25.70;100719.00;;;;2085017;28;20271;-57
2022/08/28 00:12:20;;;;;;;1.10;0.70;;;;;25.70;100722.00;;;;2085763;28;20565;-57
2022/08/28 00:13:21;;;;;;;1.40;0.60;;;;;25.70;100726.00;;;;2086556;28;21015;-56
2022/08/28 00:14:21;;;;;;;0.97;0.50;;;;;25.70;100723.00;;;;2086210;28;20594;-56
2022/08/28 00:15:26;;;;;;;0.90;0.70;;;;;25.70;100726.00;;;;2086745;28;20212;-56
2022/08/28 00:16:26;;;;;;;1.23;0.73;;;;;25.70;100718.00;;;;2086778;28;20681;-57
2022/08/28 00:17:27;;;;;;;1.30;0.90;;;;;25.70;100718.00;;;;2084760;28;20443;-55
2022/08/28 00:18:28;;;;;;;1.40;0.60;;;;;25.70;100722.00;;;;2085958;28;20279;-56
2022/08/28 00:19:28;;;;;;;0.90;0.60;;;;;25.70;100726.00;;;;2086675;28;20209;-56
2022/08/28 00:20:28;;;;;;;1.00;0.70;;;;;25.70;100726.00;;;;2086366;28;20503;-56
2022/08/28 00:21:30;;;;;;;1.43;0.73;;;;;25.70;100726.00;;;;2089905;28;20269;-57
2022/08/28 00:22:30;;;;;;;1.33;0.77;;;;;25.70;100726.00;;;;2094038;28;20310;-56
2022/08/28 00:23:31;;;;;;;0.90;0.60;;;;;25.70;100715.00;;;;2091698;28;20462;-56
2022/08/28 00:24:32;;;;;;;0.90;0.70;;;;;25.70;100724.00;;;;2077268;28;20221;-57
2022/08/28 00:25:33;;;;;;;1.07;0.63;;;;;25.70;100728.00;;;;2077353;28;20452;-56
2022/08/28 00:27:53;;;;;;;1.10;0.80;;;;;25.70;100722.00;;;;2084873;28;20209;-56
2022/08/28 00:28:53;;;;;;;1.00;0.60;;;;;25.70;100732.00;;;;2084524;28;20513;-56
2022/08/28 00:29:54;;;;;;;1.07;0.70;;;;;25.70;100730.00;;;;2086174;28;20919;-56
2022/08/28 00:30:57;;;;;;;1.30;0.80;;;;;25.70;100732.00;;;;2087059;28;20488;-56
2022/08/28 00:31:57;;;;;;;1.50;0.60;;;;;25.70;100730.00;;;;2091114;28;20286;-56
2022/08/28 00:33:12;;;;;;;1.00;0.70;;;;;25.70;100729.00;;;;2094550;28;20458;-56
2022/08/28 00:34:13;;;;;;;1.20;0.80;;;;;25.70;100728.00;;;;2094448;28;20342;-56
2022/08/28 00:35:15;;;;;;;1.17;0.60;;;;;25.70;100729.00;;;;2086659;28;20451;-56
2022/08/28 00:36:15;;;;;;;2.17;0.90;;;;;25.70;100731.00;;;;2086083;28;20296;-58
2022/08/28 00:37:15;;;;;;;1.30;0.80;;;;;25.70;100736.00;;;;2094089;28;20503;-56
2022/08/28 00:38:18;;;;;;;2.10;0.80;;;;;25.70;100734.00;;;;2094901;28;20216;-56
2022/08/28 00:39:18;;;;;;;0.90;0.60;;;;;25.70;100727.00;;;;2095471;28;20212;-56
2022/08/28 00:40:19;;;;;;;1.17;0.63;;;;;25.70;100729.00;;;;2095308;28;20443;-56
2022/08/28 00:41:19;;;;;;;1.00;0.80;;;;;25.70;100728.00;;;;2094368;28;20704;-56
2022/08/28 00:42:19;;;;;;;1.20;0.80;;;;;25.70;100734.00;;;;2094487;28;20212;-56
2022/08/28 00:43:43;;;;;;;1.07;0.60;;;;;25.70;100724.00;;;;2095367;28;20208;-56
2022/08/28 00:44:44;;;;;;;1.93;0.90;;;;;25.70;100733.00;;;;2094958;28;20652;-56
2022/08/28 00:45:44;;;;;;;1.43;0.80;;;;;25.70;100736.00;;;;2094704;28;20461;-56
2022/08/28 00:46:46;;;;;;;1.30;0.60;;;;;25.70;100731.00;;;;2086362;28;20302;-56
2022/08/28 00:47:47;;;;;;;1.30;0.70;;;;;25.70;100734.00;;;;2086068;28;20212;-56
2022/08/28 00:48:47;;;;;;;1.37;0.80;;;;;25.70;100732.00;;;;2087034;28;20479;-56
2022/08/28 00:49:49;;;;;;;1.30;0.60;;;;;25.70;100736.00;;;;2087104;28;20295;-56
2022/08/28 00:52:10;;;;;;;2.03;1.00;;;;;25.70;100734.00;;;;2081057;28;20440;-56
2022/08/28 00:53:10;;;;;;;1.70;0.80;;;;;25.70;100704.00;;;;2086683;28;20439;-56
2022/08/28 00:54:11;;;;;;;1.70;0.90;;;;;25.70;100732.00;;;;2077426;28;20487;-60
2022/08/28 00:55:13;;;;;;;1.30;0.70;;;;;25.60;100737.00;;;;2089631;28;20236;-58
2022/08/28 00:56:13;;;;;;;1.40;0.90;;;;;25.70;100737.00;;;;2085544;28;20638;-56
2022/08/28 00:57:18;;;;;;;2.10;0.87;;;;;25.70;100736.00;;;;2084463;28;20236;-56
2022/08/28 00:58:19;;;;;;;2.03;1.10;;;;;25.60;100731.00;;;;2076454;28;20217;-56
2022/08/28 00:59:21;;;;;;;1.10;0.70;;;;;25.70;100737.00;;;;2077408;28;20549;-56
2022/08/28 01:00:32;;;;;;;1.40;0.70;;;;;25.60;100730.00;;;;2086446;28;20550;-57
2022/08/28 01:01:33;;;;;;;1.90;0.87;;;;;25.70;100741.00;;;;2079131;28;20449;-57
2022/08/28 01:02:33;;;;;;;1.43;0.93;;;;;25.70;100736.00;;;;2077904;28;20454;-57
2022/08/28 01:03:35;;;;;;;1.40;0.90;;;;;25.70;100733.00;;;;2086241;28;20274;-56
2022/08/28 01:04:35;;;;;;;1.50;1.07;;;;;25.70;100734.00;;;;2086859;28;20403;-56
2022/08/28 01:05:36;;;;;;;1.20;0.67;;;;;25.70;100731.00;;;;2086203;28;20466;-56
2022/08/28 01:06:36;;;;;;;1.10;0.73;;;;;25.70;100735.00;;;;2084789;28;20321;-56
2022/08/28 01:07:36;;;;;;;1.00;0.60;;;;;25.70;100726.00;;;;2085057;28;20236;-55
2022/08/28 01:08:37;;;;;;;1.40;0.90;;;;;25.70;100736.00;;;;2077717;28;20705;-57
2022/08/28 01:09:39;;;;;;;1.50;0.73;;;;;25.70;100744.00;;;;2078277;28;20228;-55
2022/08/28 01:10:39;;;;;;;1.20;0.87;;;;;25.20;100718.00;;;;2086610;28;20451;-56
2022/08/28 01:11:43;;;;;;;1.50;1.00;;;;;25.70;100721.00;;;;2086264;28;20458;-57
2022/08/28 01:12:43;;;;;;;1.20;0.93;;;;;25.70;100731.00;;;;2085870;28;20232;-56
2022/08/28 01:13:47;;;;;;;1.20;0.60;;;;;25.70;100733.00;;;;2086265;28;20452;-57
2022/08/28 01:14:48;;;;;;;1.10;0.70;;;;;25.70;100738.00;;;;2086414;28;20312;-56
2022/08/28 01:15:48;;;;;;;1.47;0.90;;;;;25.70;100742.00;;;;2085958;28;20467;-56
2022/08/28 01:16:54;;;;;;;2.40;0.83;;;;;25.70;100741.00;;;;2069767;28;20544;-56
2022/08/28 01:18:04;;;;;;;1.37;0.90;;;;;25.70;100676.00;;;;2085921;28;20221;-57
2022/08/28 01:19:06;;;;;;;1.17;0.83;;;;;25.60;100747.00;;;;2079442;28;20449;-57
2022/08/28 01:20:11;;;;;;;1.50;0.70;;;;;25.70;100742.00;;;;2078693;28;20480;-56
2022/08/28 01:21:33;;;;;;;1.40;0.80;;;;;25.60;100746.00;;;;2086065;28;20928;-56
2022/08/28 01:22:43;;;;;;;1.53;0.80;;;;;25.60;100715.00;;;;2084271;28;20458;-57
2022/08/28 01:23:50;;;;;;;1.53;1.00;;;;;25.60;100748.00;;;;2087813;28;20535;-56
2022/08/28 01:24:51;;;;;;;1.40;0.87;;;;;25.60;100744.00;;;;2087937;28;20497;-57
2022/08/28 01:25:51;;;;;;;1.00;0.70;;;;;25.70;100747.00;;;;2077669;28;20452;-56
2022/08/28 01:26:52;;;;;;;1.10;0.60;;;;;25.70;100743.00;;;;2077526;28;20276;-56
2022/08/28 01:27:52;;;;;;;1.83;0.90;;;;;25.70;100749.00;;;;2093320;28;20219;-56
2022/08/28 01:28:53;;;;;;;1.20;0.80;;;;;25.70;100747.00;;;;2102729;28;20211;-57
2022/08/28 01:29:54;;;;;;;1.90;0.90;;;;;25.70;100751.00;;;;2094451;28;20326;-56
2022/08/28 01:30:54;;;;;;;1.63;0.97;;;;;25.70;100749.00;;;;2094874;28;20462;-57
2022/08/28 01:31:54;;;;;;;1.00;0.70;;;;;25.60;100755.00;;;;2095403;28;20641;-57
2022/08/28 01:32:55;;;;;;;1.53;0.80;;;;;25.60;100750.00;;;;2095007;28;20226;-57
2022/08/28 01:33:58;;;;;;;1.17;0.90;;;;;25.60;100751.00;;;;2095367;28;20271;-55
2022/08/28 01:34:58;;;;;;;1.77;0.90;;;;;25.60;100754.00;;;;2094344;28;20697;-56
2022/08/28 01:35:58;;;;;;;1.03;0.80;;;;;25.60;100747.00;;;;2086374;28;20472;-56
2022/08/28 01:36:59;;;;;;;1.07;0.77;;;;;25.60;100767.00;;;;2086061;28;20213;-57
2022/08/28 01:37:59;;;;;;;1.10;0.90;;;;;25.60;100744.00;;;;2093281;28;20437;-56
2022/08/28 01:39:11;;;;;;;2.50;1.40;;;;;25.60;100752.00;;;;2094245;28;20254;-56
2022/08/28 01:40:13;;;;;;;1.80;1.10;;;;;25.70;100755.00;;;;2086037;28;20225;-57
2022/08/28 01:41:15;;;;;;;1.23;0.80;;;;;25.60;100751.00;;;;2078467;28;21003;-55
2022/08/28 01:42:16;;;;;;;1.30;0.90;;;;;25.70;100753.00;;;;2086331;28;20466;-56
2022/08/28 01:43:18;;;;;;;1.27;1.10;;;;;25.60;100755.00;;;;2094353;28;20477;-57
2022/08/28 01:44:23;;;;;;;1.50;0.93;;;;;25.60;100751.00;;;;2094586;28;20216;-56
2022/08/28 01:45:23;;;;;;;2.63;1.20;;;;;25.60;100777.00;;;;2078232;28;20464;-57
2022/08/28 01:46:23;;;;;;;1.20;0.80;;;;;25.60;100755.00;;;;2078201;28;20484;-56
2022/08/28 01:47:24;;;;;;;2.30;1.00;;;;;25.60;100765.00;;;;2083267;28;20221;-56
2022/08/28 01:48:24;;;;;;;1.13;0.90;;;;;25.60;100759.00;;;;2092915;28;20247;-58
2022/08/28 01:49:28;;;;;;;1.23;0.90;;;;;25.60;100749.00;;;;2094306;28;20260;-57
2022/08/28 01:50:28;;;;;;;1.27;0.97;;;;;25.60;100756.00;;;;2085700;28;20607;-57
2022/08/28 01:51:28;;;;;;;1.60;1.00;;;;;25.60;100762.00;;;;2086048;28;20464;-57
2022/08/28 01:52:30;;;;;;;1.50;1.00;;;;;25.60;100757.00;;;;2094284;28;20218;-56
2022/08/28 01:53:30;;;;;;;1.73;1.30;;;;;25.60;100761.00;;;;2095007;28;20220;-57
2022/08/28 01:54:30;;;;;;;2.13;1.20;;;;;25.60;100762.00;;;;2092922;28;20489;-57
2022/08/28 01:55:34;;;;;;;2.37;1.13;;;;;25.60;100765.00;;;;2085989;28;20212;-56
2022/08/28 01:56:34;;;;;;;1.53;1.13;;;;;25.60;100760.00;;;;2086188;28;20221;-56
2022/08/28 01:57:40;;;;;;;1.73;1.17;;;;;25.60;100759.00;;;;2091720;28;20502;-56
2022/08/28 01:58:41;;;;;;;1.40;0.80;;;;;25.60;100760.00;;;;2079057;28;20312;-57
2022/08/28 01:59:41;;;;;;;1.60;1.00;;;;;25.60;100756.00;;;;2078522;28;20221;-56
2022/08/28 02:00:41;;;;;;;1.40;0.90;;;;;25.60;100754.00;;;;2086120;28;20317;-56
2022/08/28 02:01:42;;;;;;;1.63;1.10;;;;;25.60;100744.00;;;;2086587;28;20220;-55
2022/08/28 02:02:42;;;;;;;1.80;1.10;;;;;25.60;100756.00;;;;2077818;28;20214;-56
2022/08/28 02:03:43;;;;;;;1.60;1.10;;;;;25.60;100756.00;;;;2077820;28;20216;-56
2022/08/28 02:04:43;;;;;;;1.33;1.07;;;;;25.60;100755.00;;;;2086656;28;20628;-56
2022/08/28 02:05:44;;;;;;;1.70;1.33;;;;;25.60;100757.00;;;;2086480;28;20283;-56
2022/08/28 02:06:45;;;;;;;1.10;0.90;;;;;25.60;100763.00;;;;2085919;28;20234;-56
2022/08/28 02:07:45;;;;;;;1.40;1.07;;;;;25.60;100756.00;;;;2085089;28;20502;-56
2022/08/28 02:08:46;;;;;;;1.63;0.97;;;;;25.60;100762.00;;;;2086641;28;20237;-56
2022/08/28 02:09:46;;;;;;;1.70;1.10;;;;;25.60;100758.00;;;;2086852;28;20216;-56
2022/08/28 02:10:47;;;;;;;1.30;0.90;;;;;25.60;100760.00;;;;2086454;28;20227;-56
2022/08/28 02:11:48;;;;;;;1.90;1.10;;;;;25.60;100765.00;;;;2086105;28;20315;-56
2022/08/28 02:12:48;;;;;;;1.70;1.10;;;;;25.60;100760.00;;;;2085916;28;21242;-56
2022/08/28 02:13:49;;;;;;;1.83;1.30;;;;;25.60;100763.00;;;;2086564;28;20711;-56
2022/08/28 02:14:50;;;;;;;1.80;1.17;;;;;25.60;100756.00;;;;2086714;28;20699;-56
2022/08/28 02:15:50;;;;;;;1.70;1.40;;;;;25.60;100764.00;;;;2083864;28;20469;-56
2022/08/28 02:16:51;;;;;;;1.00;0.90;;;;;25.60;100774.00;;;;2091094;28;20216;-56
2022/08/28 02:17:51;;;;;;;1.67;1.40;;;;;25.60;100755.00;;;;2093707;28;20208;-56
2022/08/28 02:18:52;;;;;;;2.10;1.27;;;;;25.60;100765.00;;;;2094858;28;20209;-56
2022/08/28 02:19:52;;;;;;;1.33;0.90;;;;;25.60;100764.00;;;;2093627;28;20204;-56
2022/08/28 02:20:53;;;;;;;1.87;1.27;;;;;25.60;100770.00;;;;2094933;28;20219;-57
2022/08/28 02:21:53;;;;;;;1.80;1.30;;;;;25.60;100772.00;;;;2084372;28;20213;-57
2022/08/28 02:22:54;;;;;;;2.03;1.10;;;;;25.60;100763.00;;;;2094065;28;20212;-56
2022/08/28 02:23:55;;;;;;;1.90;1.40;;;;;25.60;100775.00;;;;2093829;28;20239;-59
2022/08/28 02:24:55;;;;;;;1.50;1.00;;;;;25.60;100776.00;;;;2095313;28;20454;-57
2022/08/28 02:25:55;;;;;;;1.93;1.43;;;;;25.60;100775.00;;;;2096163;28;20216;-57
2022/08/28 02:26:56;;;;;;;1.57;1.30;;;;;25.60;100776.00;;;;2096076;28;20212;-56
2022/08/28 02:27:56;;;;;;;1.57;1.17;;;;;25.60;100775.00;;;;2095308;28;20223;-57
2022/08/28 02:28:57;;;;;;;2.53;1.60;;;;;25.60;100779.00;;;;2096213;28;20278;-56
2022/08/28 02:29:58;;;;;;;2.50;1.50;;;;;25.60;100685.00;;;;2095543;28;20207;-57
2022/08/28 02:30:58;;;;;;;1.60;1.10;;;;;25.60;100774.00;;;;2095682;28;20982;-56
2022/08/28 02:31:58;;;;;;;1.40;1.13;;;;;25.60;100777.00;;;;2096165;28;20626;-56
2022/08/28 02:32:59;;;;;;;2.37;1.33;;;;;25.60;100778.00;;;;2096186;28;20741;-56
2022/08/28 02:33:59;;;;;;;2.30;1.33;;;;;25.60;100771.00;;;;2095278;28;20696;-56
2022/08/28 02:34:59;;;;;;;2.00;1.50;;;;;25.60;100769.00;;;;2095395;28;20293;-56
2022/08/28 02:36:00;;;;;;;2.03;1.27;;;;;25.60;100775.00;;;;2096463;28;20204;-57
2022/08/28 02:37:00;;;;;;;1.30;1.13;;;;;25.60;100771.00;;;;2096745;28;20295;-55
2022/08/28 02:38:00;;;;;;;1.50;1.10;;;;;25.60;100777.00;;;;2094960;28;20220;-56
2022/08/28 02:39:01;;;;;;;2.00;1.20;;;;;25.60;100772.00;;;;2094302;28;20212;-56
2022/08/28 02:40:02;;;;;;;1.63;1.20;;;;;25.60;100775.00;;;;2088421;28;20235;-56
2022/08/28 02:41:03;;;;;;;1.33;1.10;;;;;25.60;100779.00;;;;2088502;28;20205;-58
2022/08/28 02:42:03;;;;;;;1.83;1.27;;;;;25.60;100778.00;;;;2087751;28;20447;-56
2022/08/28 02:43:04;;;;;;;1.50;1.00;;;;;25.60;100768.00;;;;2088441;28;20444;-57
2022/08/28 02:44:04;;;;;;;1.53;1.10;;;;;25.60;100775.00;;;;2093794;28;20692;-57
2022/08/28 02:45:05;;;;;;;1.83;1.53;;;;;25.60;100764.00;;;;2095523;28;20782;-56
2022/08/28 02:46:05;;;;;;;1.90;1.37;;;;;25.60;100784.00;;;;2096348;28;20214;-56
2022/08/28 02:47:06;;;;;;;2.00;1.43;;;;;25.60;100770.00;;;;2095972;28;20520;-55
2022/08/28 02:48:06;;;;;;;1.57;1.13;;;;;25.60;100780.00;;;;2095330;28;20215;-57
2022/08/28 02:49:07;;;;;;;1.50;1.17;;;;;25.60;100783.00;;;;2095530;28;20216;-57
2022/08/28 02:50:08;;;;;;;1.80;1.30;;;;;25.60;100769.00;;;;2087069;28;20217;-56
2022/08/28 02:51:10;;;;;;;2.30;1.83;;;;;25.60;100729.00;;;;2087221;28;20209;-56
2022/08/28 02:52:11;;;;;;;1.80;1.30;;;;;25.60;100787.00;;;;2087383;28;20875;-56
2022/08/28 02:53:11;;;;;;;2.47;1.57;;;;;25.60;100784.00;;;;2095352;28;20454;-57
2022/08/28 02:54:12;;;;;;;2.00;1.30;;;;;25.60;100777.00;;;;2095280;28;20208;-56
2022/08/28 02:55:13;;;;;;;1.80;1.40;;;;;25.60;100777.00;;;;2095397;28;20232;-56
2022/08/28 02:56:14;;;;;;;2.27;1.40;;;;;25.60;100784.00;;;;2095248;28;20239;-56
2022/08/28 02:57:14;;;;;;;2.17;1.60;;;;;25.60;100784.00;;;;2094761;28;20461;-56
2022/08/28 02:58:15;;;;;;;2.13;1.43;;;;;25.60;100777.00;;;;2094575;28;20725;-56
2022/08/28 02:59:15;;;;;;;2.10;1.20;;;;;25.60;100778.00;;;;2095603;28;20212;-55
2022/08/28 03:00:18;;;;;;;2.60;1.50;;;;;25.60;100779.00;;;;2096217;28;20216;-56
2022/08/28 03:01:19;;;;;;;1.77;1.23;;;;;25.60;100693.00;;;;2095942;28;20223;-56
2022/08/28 03:02:19;;;;;;;2.17;1.30;;;;;25.60;100781.00;;;;2096128;28;21008;-56
2022/08/28 03:03:19;;;;;;;3.70;1.30;;;;;25.60;100778.00;;;;2096109;28;20244;-55
2022/08/28 03:04:20;;;;;;;1.50;1.30;;;;;25.60;100772.00;;;;2095135;28;20236;-55
2022/08/28 03:05:23;;;;;;;3.67;1.43;;;;;25.60;100771.00;;;;2095519;28;20215;-57
2022/08/28 03:06:24;;;;;;;2.83;1.70;;;;;25.60;100775.00;;;;2095780;28;20216;-57
2022/08/28 03:07:25;;;;;;;2.17;1.73;;;;;25.60;100767.00;;;;2094995;28;20474;-56
2022/08/28 03:08:25;;;;;;;1.57;1.37;;;;;25.60;100772.00;;;;2092461;28;20274;-57
2022/08/28 03:09:25;;;;;;;1.90;1.30;;;;;25.60;100780.00;;;;2078953;28;20221;-57
2022/08/28 03:10:26;;;;;;;1.87;1.30;;;;;25.50;100778.00;;;;2078703;28;20213;-56
2022/08/28 03:11:26;;;;;;;2.07;1.47;;;;;25.60;100775.00;;;;2078752;28;20225;-57
2022/08/28 03:12:26;;;;;;;1.77;1.37;;;;;25.60;100795.00;;;;2094825;28;20211;-56
2022/08/28 03:13:27;;;;;;;1.57;1.20;;;;;25.60;100781.00;;;;2086857;28;20236;-56
2022/08/28 03:14:27;;;;;;;2.00;1.50;;;;;25.60;100782.00;;;;2086584;28;20215;-56
2022/08/28 03:15:28;;;;;;;2.30;1.63;;;;;25.60;100776.00;;;;2087764;28;20208;-56
2022/08/28 03:16:29;;;;;;;1.33;1.10;;;;;25.50;100776.00;;;;2087541;28;20302;-56
2022/08/28 03:17:30;;;;;;;2.37;1.67;;;;;25.60;100778.00;;;;2085660;28;20274;-57
2022/08/28 03:18:31;;;;;;;1.30;1.20;;;;;25.60;100772.00;;;;2086953;28;20461;-56
2022/08/28 03:19:32;;;;;;;2.10;1.50;;;;;25.60;100774.00;;;;2087855;28;20985;-57
2022/08/28 03:20:32;;;;;;;2.10;1.47;;;;;25.60;100778.00;;;;2088145;28;20458;-56
2022/08/28 03:21:33;;;;;;;2.90;1.53;;;;;25.60;100773.00;;;;2091312;28;20243;-57
2022/08/28 03:23:52;;;;;;;2.37;1.50;;;;;25.50;100773.00;;;;2092367;28;20207;-57
2022/08/28 03:24:52;;;;;;;1.70;1.47;;;;;25.50;100773.00;;;;2096081;28;21006;-56
2022/08/28 03:26:03;;;;;;;1.87;1.43;;;;;25.50;100770.00;;;;2095908;28;20703;-57
2022/08/28 03:27:04;;;;;;;1.60;1.40;;;;;25.50;100753.00;;;;2088817;28;20239;-56
2022/08/28 03:28:04;;;;;;;2.67;1.80;;;;;25.50;100772.00;;;;2085824;28;20458;-61
2022/08/28 03:29:05;;;;;;;2.30;1.43;;;;;25.50;100772.00;;;;2095200;28;20207;-58
2022/08/28 03:30:06;;;;;;;2.53;1.73;;;;;25.50;100768.00;;;;2096268;28;20328;-57
2022/08/28 03:31:07;;;;;;;1.87;1.23;;;;;25.50;100768.00;;;;2091226;28;20213;-57
2022/08/28 03:32:08;;;;;;;1.90;1.60;;;;;25.60;100771.00;;;;2092897;28;20462;-56
2022/08/28 03:33:08;;;;;;;2.03;1.60;;;;;25.60;100770.00;;;;2095497;28;20982;-57
2022/08/28 03:34:09;;;;;;;2.20;1.70;;;;;25.50;100771.00;;;;2095278;28;20739;-56
2022/08/28 03:35:10;;;;;;;1.70;1.27;;;;;25.50;100774.00;;;;2094866;28;20676;-57
2022/08/28 03:36:12;;;;;;;1.80;1.50;;;;;25.60;100766.00;;;;2094589;28;20231;-57
2022/08/28 03:37:12;;;;;;;2.00;1.33;;;;;25.50;100770.00;;;;2088769;28;20213;-57
2022/08/28 03:38:12;;;;;;;2.03;1.67;;;;;25.50;100773.00;;;;2086155;28;20458;-57
2022/08/28 03:39:13;;;;;;;3.20;1.47;;;;;25.50;100776.00;;;;2087753;28;20216;-56
2022/08/28 03:40:13;;;;;;;1.87;1.30;;;;;25.50;100768.00;;;;2087811;28;20295;-57
2022/08/28 03:41:15;;;;;;;1.80;1.50;;;;;25.50;100777.00;;;;2087809;28;20201;-56
2022/08/28 03:42:16;;;;;;;2.60;1.53;;;;;25.50;100774.00;;;;2090505;28;20328;-56
2022/08/28 03:43:18;;;;;;;1.93;1.50;;;;;25.50;100778.00;;;;2095322;28;21005;-57
2022/08/28 03:44:18;;;;;;;2.10;1.50;;;;;25.60;100780.00;;;;2094040;28;20223;-57
2022/08/28 03:45:19;;;;;;;1.53;1.40;;;;;25.50;100772.00;;;;2086984;28;20454;-57
2022/08/28 03:46:22;;;;;;;2.07;1.30;;;;;25.50;100776.00;;;;2086148;28;20228;-56
2022/08/28 03:47:23;;;;;;;1.60;1.43;;;;;25.50;100776.00;;;;2086315;28;20213;-56
2022/08/28 03:48:27;;;;;;;4.43;2.37;;;;;25.50;100776.00;;;;2095253;28;20450;-56
2022/08/28 03:49:28;;;;;;;2.10;1.50;;;;;25.60;100787.00;;;;2095854;28;21661;-56
2022/08/28 03:50:28;;;;;;;2.10;1.53;;;;;25.50;100779.00;;;;2095571;28;20488;-56
2022/08/28 03:51:30;;;;;;;2.87;1.87;;;;;25.50;100780.00;;;;2096137;28;20205;-57
2022/08/28 03:52:31;;;;;;;2.80;2.07;;;;;25.50;100792.00;;;;2095210;28;20222;-57
2022/08/28 03:53:31;;;;;;;1.97;1.53;;;;;25.50;100777.00;;;;2087014;28;20458;-56
2022/08/28 03:54:32;;;;;;;1.90;1.60;;;;;25.50;100781.00;;;;2095307;28;21084;-57
2022/08/28 03:55:32;;;;;;;2.30;1.50;;;;;25.50;100779.00;;;;2094145;28;20446;-56
2022/08/28 03:56:32;;;;;;;3.03;2.00;;;;;25.50;100783.00;;;;2087632;28;20209;-57
2022/08/28 03:57:33;;;;;;;3.47;2.07;;;;;25.50;100782.00;;;;2086438;28;20212;-56
2022/08/28 03:58:33;;;;;;;1.80;1.43;;;;;25.50;100783.00;;;;2087592;28;20217;-56
2022/08/28 03:59:34;;;;;;;3.03;1.67;;;;;25.50;100784.00;;;;2087676;28;20205;-57
2022/08/28 04:00:34;;;;;;;2.03;1.70;;;;;25.50;100787.00;;;;2085097;28;20283;-55
2022/08/28 04:01:36;;;;;;;3.03;1.70;;;;;25.50;100782.00;;;;2087322;28;20201;-58
2022/08/28 04:02:37;;;;;;;1.93;1.53;;;;;25.50;100782.00;;;;2094700;28;20227;-56
2022/08/28 04:03:38;;;;;;;2.80;1.67;;;;;25.50;100779.00;;;;2095414;28;20465;-56
2022/08/28 04:04:38;;;;;;;2.47;1.57;;;;;25.50;100783.00;;;;2095130;28;20461;-57
2022/08/28 04:05:39;;;;;;;2.07;1.80;;;;;25.50;100786.00;;;;2087236;28;20213;-58
2022/08/28 04:06:40;;;;;;;2.33;1.67;;;;;25.50;100778.00;;;;2081778;28;20213;-57
2022/08/28 04:07:40;;;;;;;2.73;1.80;;;;;25.50;100794.00;;;;2085905;28;20455;-57
2022/08/28 04:08:40;;;;;;;2.50;2.00;;;;;25.50;100792.00;;;;2087208;28;20221;-57
2022/08/28 04:09:41;;;;;;;2.13;1.40;;;;;25.50;100789.00;;;;2086326;28;20748;-57
2022/08/28 04:10:42;;;;;;;2.80;1.83;;;;;25.50;100785.00;;;;2086609;28;20263;-56
2022/08/28 04:11:43;;;;;;;2.53;1.60;;;;;25.50;100805.00;;;;2085921;28;20220;-57
2022/08/28 04:12:43;;;;;;;2.10;1.50;;;;;25.50;100788.00;;;;2086033;28;21032;-56
2022/08/28 04:13:44;;;;;;;2.13;1.60;;;;;25.50;100782.00;;;;2085143;28;20701;-56
2022/08/28 04:14:44;;;;;;;2.33;1.80;;;;;25.50;100784.00;;;;2085724;28;20263;-58
2022/08/28 04:15:44;;;;;;;2.60;1.73;;;;;25.50;100782.00;;;;2086002;28;20224;-57
2022/08/28 04:16:45;;;;;;;2.70;1.73;;;;;25.50;100789.00;;;;2086094;28;20233;-57
2022/08/28 04:17:45;;;;;;;2.20;1.50;;;;;25.50;100786.00;;;;2084644;28;20303;-57
2022/08/28 04:18:46;;;;;;;2.33;1.80;;;;;25.50;100776.00;;;;2086537;28;20227;-57
2022/08/28 04:19:47;;;;;;;2.53;1.80;;;;;25.50;100787.00;;;;2077929;28;20242;-56
2022/08/28 04:20:57;;;;;;;2.40;1.40;;;;;25.50;100767.00;;;;2077732;28;20849;-56
2022/08/28 04:21:57;;;;;;;2.73;1.77;;;;;25.50;100788.00;;;;2084130;28;20244;-56
2022/08/28 04:22:58;;;;;;;2.43;1.73;;;;;25.50;100795.00;;;;2085252;28;20464;-57
2022/08/28 04:23:58;;;;;;;1.90;1.57;;;;;25.50;100793.00;;;;2086749;28;20807;-57
2022/08/28 04:24:58;;;;;;;2.63;2.07;;;;;25.50;100795.00;;;;2086631;28;20653;-56
2022/08/28 04:25:59;;;;;;;2.50;1.80;;;;;25.50;100794.00;;;;2086151;28;20227;-57
2022/08/28 04:26:59;;;;;;;2.73;1.77;;;;;25.50;100797.00;;;;2086765;28;20225;-56
2022/08/28 04:27:59;;;;;;;2.57;1.57;;;;;25.50;100800.00;;;;2085726;28;20228;-56
2022/08/28 04:29:00;;;;;;;2.80;1.80;;;;;25.50;100800.00;;;;2085980;28;20266;-56
2022/08/28 04:30:00;;;;;;;2.30;1.70;;;;;25.50;100805.00;;;;2086660;28;20212;-56
2022/08/28 04:31:01;;;;;;;2.23;1.90;;;;;25.50;100804.00;;;;2091601;28;20216;-56
2022/08/28 04:32:01;;;;;;;3.07;1.77;;;;;25.50;100803.00;;;;2094825;28;20220;-56
2022/08/28 04:33:01;;;;;;;2.73;1.90;;;;;25.50;100803.00;;;;2094908;28;20717;-56
2022/08/28 04:34:04;;;;;;;2.57;2.03;;;;;25.50;100807.00;;;;2095294;28;20568;-56
2022/08/28 04:35:05;;;;;;;2.57;2.07;;;;;25.50;100809.00;;;;2095319;28;20327;-56
2022/08/28 04:36:08;;;;;;;2.20;1.90;;;;;25.50;100810.00;;;;2094728;28;20827;-57
2022/08/28 04:37:08;;;;;;;3.63;1.80;;;;;25.50;100801.00;;;;2091520;28;20520;-56
2022/08/28 04:38:09;;;;;;;3.10;2.03;;;;;25.50;100803.00;;;;2085110;28;20513;-56
2022/08/28 04:39:09;;;;;;;2.60;1.67;;;;;25.50;100809.00;;;;2087472;28;20240;-56
2022/08/28 04:40:10;;;;;;;2.03;1.40;;;;;25.50;100804.00;;;;2095533;28;20216;-57
2022/08/28 04:41:11;;;;;;;1.93;1.40;;;;;25.50;100807.00;;;;2094816;28;20225;-57
2022/08/28 04:42:12;;;;;;;2.13;1.40;;;;;25.50;100804.00;;;;2086474;28;20294;-57
2022/08/28 04:43:12;;;;;;;2.77;1.93;;;;;25.50;100806.00;;;;2086412;28;20535;-56
2022/08/28 04:44:12;;;;;;;2.60;1.97;;;;;25.50;100799.00;;;;2094503;28;20282;-56
2022/08/28 04:45:13;;;;;;;2.30;1.80;;;;;25.50;100800.00;;;;2095350;28;20228;-56
2022/08/28 04:46:13;;;;;;;2.87;1.60;;;;;25.50;100811.00;;;;2095246;28;20226;-56
2022/08/28 04:47:13;;;;;;;2.07;1.73;;;;;25.50;100811.00;;;;2085767;28;20224;-56
2022/08/28 04:48:14;;;;;;;3.03;2.07;;;;;25.50;100803.00;;;;2083585;28;20248;-57
2022/08/28 04:49:15;;;;;;;2.50;1.97;;;;;25.50;100809.00;;;;2095260;28;20232;-56
2022/08/28 04:50:15;;;;;;;2.40;1.70;;;;;25.50;100809.00;;;;2094915;28;20220;-56
2022/08/28 04:51:15;;;;;;;2.20;1.43;;;;;25.50;100808.00;;;;2095249;28;20467;-57
2022/08/28 04:52:16;;;;;;;2.60;2.00;;;;;25.50;100807.00;;;;2095426;28;20688;-57
2022/08/28 04:53:17;;;;;;;2.03;1.60;;;;;25.40;100808.00;;;;2095035;28;20627;-57
2022/08/28 04:54:17;;;;;;;2.88;2.00;;;;;25.50;100812.00;;;;2094640;28;20476;-57
2022/08/28 04:55:17;;;;;;;2.20;1.80;;;;;25.50;100827.00;;;;2094588;28;20224;-56
2022/08/28 04:56:18;;;;;;;3.00;1.70;;;;;25.50;100812.00;;;;2095110;28;20711;-57
2022/08/28 04:57:18;;;;;;;2.53;1.90;;;;;25.50;100810.00;;;;2094683;28;20706;-56
2022/08/28 04:58:19;;;;;;;2.50;1.57;;;;;25.50;100822.00;;;;2093794;28;20273;-56
2022/08/28 04:59:19;;;;;;;1.70;1.60;;;;;25.50;100813.00;;;;2094720;28;20749;-56
2022/08/28 05:00:19;;;;;;;2.30;1.90;;;;;25.50;100824.00;;;;2095574;28;20228;-55
2022/08/28 05:01:23;;;;;;;2.10;1.77;;;;;25.50;100806.00;;;;2094424;28;20633;-60
2022/08/28 05:02:23;;;;;;;2.60;1.77;;;;;25.50;100817.00;;;;2094100;28;20204;-57
2022/08/28 05:03:23;;;;;;;1.87;1.50;;;;;25.40;100822.00;;;;2094534;28;20834;-56
2022/08/28 05:04:25;;;;;;;2.67;1.93;;;;;25.50;100815.00;;;;2095136;28;20303;-58
2022/08/28 05:05:26;;;;;;;2.60;2.10;;;;;25.50;100817.00;;;;2094653;28;20226;-56
2022/08/28 05:06:27;;;;;;;2.37;1.90;;;;;25.50;100817.00;;;;2094203;28;20478;-56